Time,TemperatureF,DewpointF,PressureIn,WindDirection,WindDirectionDegrees,WindSpeedMPH,WindSpeedGustMPH,Humidity,HourlyPrecipIn,Conditions,Clouds,dailyrainin,SoftwareType,DateUTC
2013-05-14 00:00:00,54.5,37.7,30.18,NNE,23,0.0,-999.0,53,0.00,,,0.00,Wunderground v.1.15,2013-05-14 04:00:00,
2013-05-14 00:05:00,54.5,37.7,30.18,NNE,23,0.0,-999.0,53,0.00,,,0.00,Wunderground v.1.15,2013-05-14 04:05:00,
2013-05-14 00:10:00,54.5,37.7,30.18,NNE,23,0.0,-999.0,53,0.00,,,0.00,Wunderground v.1.15,2013-05-14 04:10:00,
2013-05-14 00:15:00,54.5,37.7,30.18,NNE,23,0.0,-999.0,53,0.00,,,0.00,Wunderground v.1.15,2013-05-14 04:15:00,
2013-05-14 00:20:00,54.5,37.7,30.18,NNE,23,0.0,-999.0,53,0.00,,,0.00,Wunderground v.1.15,2013-05-14 04:20:00,
2013-05-14 00:25:00,54.5,37.7,30.18,NNE,23,0.0,-999.0,53,0.00,,,0.00,Wunderground v.1.15,2013-05-14 04:25:00,
2013-05-14 00:30:00,54.5,37.7,30.18,NNE,23,0.0,-999.0,53,0.00,,,0.00,Wunderground v.1.15,2013-05-14 04:30:00,
2013-05-14 00:35:00,54.5,37.7,30.18,NNE,23,0.0,-999.0,53,0.00,,,0.00,Wunderground v.1.15,2013-05-14 04:35:00,
2013-05-14 00:40:00,54.5,37.7,30.18,NNE,23,0.0,-999.0,53,0.00,,,0.00,Wunderground v.1.15,2013-05-14 04:40:00,
2013-05-14 00:45:00,52.9,38.5,30.18,ENE,68,0.0,-999.0,58,0.00,,,0.00,Wunderground v.1.15,2013-05-14 04:45:00,
2013-05-14 00:50:00,52.9,38.5,30.18,ENE,68,0.0,-999.0,58,0.00,,,0.00,Wunderground v.1.15,2013-05-14 04:50:00,
2013-05-14 00:55:00,52.9,38.5,30.18,ENE,68,0.0,-999.0,58,0.00,,,0.00,Wunderground v.1.15,2013-05-14 04:55:00,
2013-05-14 01:00:00,52.9,38.5,30.18,ENE,68,0.0,-999.0,58,0.00,,,0.00,Wunderground v.1.15,2013-05-14 05:00:00,
2013-05-14 01:05:00,52.9,38.5,30.18,ENE,68,0.0,-999.0,58,0.00,,,0.00,Wunderground v.1.15,2013-05-14 05:05:00,
2013-05-14 01:10:00,52.9,38.5,30.18,ENE,68,0.0,-999.0,58,0.00,,,0.00,Wunderground v.1.15,2013-05-14 05:10:00,
2013-05-14 01:15:00,51.5,39.3,30.18,N/A,-737280,0.0,-999.0,63,0.00,,,0.00,Wunderground v.1.15,2013-05-14 05:15:00,
2013-05-14 01:20:00,51.5,39.3,30.18,N/A,-737280,0.0,-999.0,63,0.00,,,0.00,Wunderground v.1.15,2013-05-14 05:20:00,
2013-05-14 01:25:00,51.5,39.3,30.18,N/A,-737280,0.0,-999.0,63,0.00,,,0.00,Wunderground v.1.15,2013-05-14 05:25:00,
2013-05-14 01:30:00,51.5,39.3,30.18,N/A,-737280,0.0,-999.0,63,0.00,,,0.00,Wunderground v.1.15,2013-05-14 05:30:00,
2013-05-14 01:35:00,51.5,39.3,30.18,N/A,-737280,0.0,-999.0,63,0.00,,,0.00,Wunderground v.1.15,2013-05-14 05:35:00,
2013-05-14 01:40:00,51.5,39.3,30.18,N/A,-737280,0.0,-999.0,63,0.00,,,0.00,Wunderground v.1.15,2013-05-14 05:40:00,
2013-05-14 01:45:00,49.9,39.8,30.18,ENE,68,0.0,-999.0,68,0.00,,,0.00,Wunderground v.1.15,2013-05-14 05:45:00,
2013-05-14 01:50:00,49.9,39.8,30.18,ENE,68,0.0,-999.0,68,0.00,,,0.00,Wunderground v.1.15,2013-05-14 05:50:00,
2013-05-14 01:55:00,49.9,39.8,30.18,ENE,68,0.0,-999.0,68,0.00,,,0.00,Wunderground v.1.15,2013-05-14 05:55:00,
2013-05-14 02:00:00,49.9,39.8,30.18,ENE,68,0.0,-999.0,68,0.00,,,0.00,Wunderground v.1.15,2013-05-14 06:00:00,
2013-05-14 02:05:00,49.9,39.8,30.18,ENE,68,0.0,-999.0,68,0.00,,,0.00,Wunderground v.1.15,2013-05-14 06:05:00,
2013-05-14 02:10:00,49.9,39.8,30.18,ENE,68,0.0,-999.0,68,0.00,,,0.00,Wunderground v.1.15,2013-05-14 06:10:00,
2013-05-14 02:15:00,49.2,40.6,30.18,N/A,-737280,0.0,-999.0,72,0.00,,,0.00,Wunderground v.1.15,2013-05-14 06:15:00,
2013-05-14 02:20:00,49.2,40.6,30.18,N/A,-737280,0.0,-999.0,72,0.00,,,0.00,Wunderground v.1.15,2013-05-14 06:20:00,
2013-05-14 02:25:00,49.2,40.6,30.18,N/A,-737280,0.0,-999.0,72,0.00,,,0.00,Wunderground v.1.15,2013-05-14 06:25:00,
2013-05-14 02:30:00,49.2,40.6,30.18,N/A,-737280,0.0,-999.0,72,0.00,,,0.00,Wunderground v.1.15,2013-05-14 06:30:00,
2013-05-14 02:35:00,49.2,40.6,30.18,N/A,-737280,0.0,-999.0,72,0.00,,,0.00,Wunderground v.1.15,2013-05-14 06:35:00,
2013-05-14 02:40:00,49.2,40.6,30.18,N/A,-737280,0.0,-999.0,72,0.00,,,0.00,Wunderground v.1.15,2013-05-14 06:40:00,
2013-05-14 02:45:00,48.8,41.2,30.19,N/A,-737280,0.0,-999.0,75,0.00,,,0.00,Wunderground v.1.15,2013-05-14 06:45:00,
2013-05-14 02:50:00,48.8,41.2,30.19,N/A,-737280,0.0,-999.0,75,0.00,,,0.00,Wunderground v.1.15,2013-05-14 06:50:00,
2013-05-14 02:55:00,48.8,41.2,30.19,N/A,-737280,0.0,-999.0,75,0.00,,,0.00,Wunderground v.1.15,2013-05-14 06:55:00,
2013-05-14 03:00:00,48.8,41.2,30.19,N/A,-737280,0.0,-999.0,75,0.00,,,0.00,Wunderground v.1.15,2013-05-14 07:00:00,
2013-05-14 03:05:00,48.8,41.2,30.19,N/A,-737280,0.0,-999.0,75,0.00,,,0.00,Wunderground v.1.15,2013-05-14 07:05:00,
2013-05-14 03:10:00,48.8,41.2,30.19,N/A,-737280,0.0,-999.0,75,0.00,,,0.00,Wunderground v.1.15,2013-05-14 07:10:00,
2013-05-14 03:15:00,48.1,41.6,30.20,N/A,-737280,0.0,-999.0,78,0.00,,,0.00,Wunderground v.1.15,2013-05-14 07:15:00,
2013-05-14 03:20:00,48.1,41.6,30.20,N/A,-737280,0.0,-999.0,78,0.00,,,0.00,Wunderground v.1.15,2013-05-14 07:20:00,
2013-05-14 03:25:00,48.1,41.6,30.20,N/A,-737280,0.0,-999.0,78,0.00,,,0.00,Wunderground v.1.15,2013-05-14 07:25:00,
2013-05-14 03:30:00,48.1,41.6,30.20,N/A,-737280,0.0,-999.0,78,0.00,,,0.00,Wunderground v.1.15,2013-05-14 07:30:00,
2013-05-14 03:35:00,48.1,41.6,30.20,N/A,-737280,0.0,-999.0,78,0.00,,,0.00,Wunderground v.1.15,2013-05-14 07:35:00,
2013-05-14 03:40:00,48.1,41.6,30.20,N/A,-737280,0.0,-999.0,78,0.00,,,0.00,Wunderground v.1.15,2013-05-14 07:40:00,
2013-05-14 03:45:00,47.7,41.8,30.21,ENE,68,0.0,-999.0,80,0.00,,,0.00,Wunderground v.1.15,2013-05-14 07:45:00,
2013-05-14 03:50:00,47.7,41.8,30.21,ENE,68,0.0,-999.0,80,0.00,,,0.00,Wunderground v.1.15,2013-05-14 07:50:00,
2013-05-14 03:55:00,47.7,41.8,30.21,ENE,68,0.0,-999.0,80,0.00,,,0.00,Wunderground v.1.15,2013-05-14 07:55:00,
2013-05-14 04:00:00,47.7,41.8,30.21,ENE,68,0.0,-999.0,80,0.00,,,0.00,Wunderground v.1.15,2013-05-14 08:00:00,
2013-05-14 04:05:00,47.7,41.8,30.21,ENE,68,0.0,-999.0,80,0.00,,,0.00,Wunderground v.1.15,2013-05-14 08:05:00,
2013-05-14 04:10:00,47.7,41.8,30.21,ENE,68,0.0,-999.0,80,0.00,,,0.00,Wunderground v.1.15,2013-05-14 08:10:00,
2013-05-14 04:15:00,47.0,41.8,30.21,N/A,-737280,0.0,-999.0,82,0.00,,,0.00,Wunderground v.1.15,2013-05-14 08:15:00,
2013-05-14 04:20:00,47.0,41.8,30.21,N/A,-737280,0.0,-999.0,82,0.00,,,0.00,Wunderground v.1.15,2013-05-14 08:20:00,
2013-05-14 04:25:00,47.0,41.8,30.21,N/A,-737280,0.0,-999.0,82,0.00,,,0.00,Wunderground v.1.15,2013-05-14 08:25:00,
2013-05-14 04:30:00,47.0,41.8,30.21,N/A,-737280,0.0,-999.0,82,0.00,,,0.00,Wunderground v.1.15,2013-05-14 08:30:00,
2013-05-14 04:35:00,47.0,41.8,30.21,N/A,-737280,0.0,-999.0,82,0.00,,,0.00,Wunderground v.1.15,2013-05-14 08:35:00,
2013-05-14 04:40:00,47.0,41.8,30.21,N/A,-737280,0.0,-999.0,82,0.00,,,0.00,Wunderground v.1.15,2013-05-14 08:40:00,
2013-05-14 04:45:00,46.4,41.2,30.21,ENE,68,0.0,-999.0,82,0.00,,,0.00,Wunderground v.1.15,2013-05-14 08:45:00,
2013-05-14 04:50:00,46.4,41.2,30.21,ENE,68,0.0,-999.0,82,0.00,,,0.00,Wunderground v.1.15,2013-05-14 08:50:00,
2013-05-14 04:55:00,46.4,41.2,30.21,ENE,68,0.0,-999.0,82,0.00,,,0.00,Wunderground v.1.15,2013-05-14 08:55:00,
2013-05-14 05:00:00,46.4,41.2,30.21,ENE,68,0.0,-999.0,82,0.00,,,0.00,Wunderground v.1.15,2013-05-14 09:00:00,
2013-05-14 05:05:00,46.4,41.2,30.21,ENE,68,0.0,-999.0,82,0.00,,,0.00,Wunderground v.1.15,2013-05-14 09:05:00,
2013-05-14 05:10:00,46.4,41.2,30.21,ENE,68,0.0,-999.0,82,0.00,,,0.00,Wunderground v.1.15,2013-05-14 09:10:00,
2013-05-14 05:15:00,46.2,39.7,30.21,ENE,68,0.0,-999.0,78,0.00,,,0.00,Wunderground v.1.15,2013-05-14 09:15:00,
2013-05-14 05:20:00,46.2,39.7,30.21,ENE,68,0.0,-999.0,78,0.00,,,0.00,Wunderground v.1.15,2013-05-14 09:20:00,
2013-05-14 05:25:00,46.2,39.7,30.21,ENE,68,0.0,-999.0,78,0.00,,,0.00,Wunderground v.1.15,2013-05-14 09:25:00,
2013-05-14 05:30:00,46.2,39.7,30.21,ENE,68,0.0,-999.0,78,0.00,,,0.00,Wunderground v.1.15,2013-05-14 09:30:00,
2013-05-14 05:35:00,46.2,39.7,30.21,ENE,68,0.0,-999.0,78,0.00,,,0.00,Wunderground v.1.15,2013-05-14 09:35:00,
2013-05-14 05:40:00,46.2,39.7,30.21,ENE,68,0.0,-999.0,78,0.00,,,0.00,Wunderground v.1.15,2013-05-14 09:40:00,
2013-05-14 05:45:00,45.3,39.5,30.22,ENE,68,0.0,-999.0,80,0.00,,,0.00,Wunderground v.1.15,2013-05-14 09:45:00,
2013-05-14 05:50:00,45.3,39.5,30.22,ENE,68,0.0,-999.0,80,0.00,,,0.00,Wunderground v.1.15,2013-05-14 09:50:00,
2013-05-14 05:55:00,45.3,39.5,30.22,ENE,68,0.0,-999.0,80,0.00,,,0.00,Wunderground v.1.15,2013-05-14 09:55:00,
2013-05-14 06:00:00,45.3,39.5,30.22,ENE,68,0.0,-999.0,80,0.00,,,0.00,Wunderground v.1.15,2013-05-14 10:00:00,
2013-05-14 06:05:00,45.3,39.5,30.22,ENE,68,0.0,-999.0,80,0.00,,,0.00,Wunderground v.1.15,2013-05-14 10:05:00,
2013-05-14 06:10:00,45.3,39.5,30.22,ENE,68,0.0,-999.0,80,0.00,,,0.00,Wunderground v.1.15,2013-05-14 10:10:00,
2013-05-14 06:15:00,45.0,39.8,30.24,ENE,68,0.0,-999.0,82,0.00,,,0.00,Wunderground v.1.15,2013-05-14 10:15:00,
2013-05-14 06:20:00,45.0,39.8,30.24,ENE,68,0.0,-999.0,82,0.00,,,0.00,Wunderground v.1.15,2013-05-14 10:20:00,
2013-05-14 06:25:00,45.0,39.8,30.24,ENE,68,0.0,-999.0,82,0.00,,,0.00,Wunderground v.1.15,2013-05-14 10:25:00,
2013-05-14 06:30:00,45.0,39.8,30.24,ENE,68,0.0,-999.0,82,0.00,,,0.00,Wunderground v.1.15,2013-05-14 10:30:00,
2013-05-14 06:35:00,45.0,39.8,30.24,ENE,68,0.0,-999.0,82,0.00,,,0.00,Wunderground v.1.15,2013-05-14 10:35:00,
2013-05-14 06:40:00,45.0,39.8,30.24,ENE,68,0.0,-999.0,82,0.00,,,0.00,Wunderground v.1.15,2013-05-14 10:40:00,
2013-05-14 06:45:00,45.1,39.9,30.24,ENE,68,0.0,-999.0,82,0.00,,,0.00,Wunderground v.1.15,2013-05-14 10:45:00,
2013-05-14 06:50:00,45.1,39.9,30.24,ENE,68,0.0,-999.0,82,0.00,,,0.00,Wunderground v.1.15,2013-05-14 10:50:00,
2013-05-14 06:55:00,45.1,39.9,30.24,ENE,68,0.0,-999.0,82,0.00,,,0.00,Wunderground v.1.15,2013-05-14 10:55:00,
2013-05-14 07:00:00,45.1,39.9,30.24,ENE,68,0.0,-999.0,82,0.00,,,0.00,Wunderground v.1.15,2013-05-14 11:00:00,
2013-05-14 07:05:00,45.1,39.9,30.24,ENE,68,0.0,-999.0,82,0.00,,,0.00,Wunderground v.1.15,2013-05-14 11:05:00,
2013-05-14 07:10:00,45.1,39.9,30.24,ENE,68,0.0,-999.0,82,0.00,,,0.00,Wunderground v.1.15,2013-05-14 11:10:00,
2013-05-14 07:15:00,46.9,40.7,30.25,N/A,-737280,0.0,-999.0,79,0.00,,,0.00,Wunderground v.1.15,2013-05-14 11:15:00,
2013-05-14 07:20:00,46.9,40.7,30.25,N/A,-737280,0.0,-999.0,79,0.00,,,0.00,Wunderground v.1.15,2013-05-14 11:20:00,
2013-05-14 07:25:00,46.9,40.7,30.25,N/A,-737280,0.0,-999.0,79,0.00,,,0.00,Wunderground v.1.15,2013-05-14 11:25:00,
2013-05-14 07:30:00,46.9,40.7,30.25,N/A,-737280,0.0,-999.0,79,0.00,,,0.00,Wunderground v.1.15,2013-05-14 11:30:00,
2013-05-14 07:35:00,46.9,40.7,30.25,N/A,-737280,0.0,-999.0,79,0.00,,,0.00,Wunderground v.1.15,2013-05-14 11:35:00,
2013-05-14 07:40:00,46.9,40.7,30.25,N/A,-737280,0.0,-999.0,79,0.00,,,0.00,Wunderground v.1.15,2013-05-14 11:40:00,
2013-05-14 07:45:00,50.3,41.3,30.25,ENE,68,0.0,-999.0,71,0.00,,,0.00,Wunderground v.1.15,2013-05-14 11:45:00,
2013-05-14 07:50:00,50.3,41.3,30.25,ENE,68,0.0,-999.0,71,0.00,,,0.00,Wunderground v.1.15,2013-05-14 11:50:00,
2013-05-14 07:55:00,50.3,41.3,30.25,ENE,68,0.0,-999.0,71,0.00,,,0.00,Wunderground v.1.15,2013-05-14 11:55:00,
2013-05-14 08:00:00,50.3,41.3,30.25,ENE,68,0.0,-999.0,71,0.00,,,0.00,Wunderground v.1.15,2013-05-14 12:00:00,
2013-05-14 08:05:00,50.3,41.3,30.25,ENE,68,0.0,-999.0,71,0.00,,,0.00,Wunderground v.1.15,2013-05-14 12:05:00,
2013-05-14 08:10:00,50.3,41.3,30.25,ENE,68,0.0,-999.0,71,0.00,,,0.00,Wunderground v.1.15,2013-05-14 12:10:00,
2013-05-14 08:15:00,56.0,41.0,30.25,NNE,23,0.0,-999.0,57,0.00,,,0.00,Wunderground v.1.15,2013-05-14 12:15:00,
2013-05-14 08:20:00,56.0,41.0,30.25,NNE,23,0.0,-999.0,57,0.00,,,0.00,Wunderground v.1.15,2013-05-14 12:20:00,
2013-05-14 08:25:00,56.0,41.0,30.25,NNE,23,0.0,-999.0,57,0.00,,,0.00,Wunderground v.1.15,2013-05-14 12:25:00,
2013-05-14 08:30:00,56.0,41.0,30.25,NNE,23,0.0,-999.0,57,0.00,,,0.00,Wunderground v.1.15,2013-05-14 12:30:00,
2013-05-14 08:35:00,56.0,41.0,30.25,NNE,23,0.0,-999.0,57,0.00,,,0.00,Wunderground v.1.15,2013-05-14 12:35:00,
2013-05-14 08:40:00,56.0,41.0,30.25,NNE,23,0.0,-999.0,57,0.00,,,0.00,Wunderground v.1.15,2013-05-14 12:40:00,
2013-05-14 08:45:00,58.2,39.6,30.25,South,180,0.0,-999.0,50,0.00,,,0.00,Wunderground v.1.15,2013-05-14 12:45:00,
2013-05-14 08:50:00,58.2,39.6,30.25,South,180,0.0,-999.0,50,0.00,,,0.00,Wunderground v.1.15,2013-05-14 12:50:00,
2013-05-14 08:55:00,58.2,39.6,30.25,South,180,0.0,-999.0,50,0.00,,,0.00,Wunderground v.1.15,2013-05-14 12:55:00,
2013-05-14 09:00:00,58.2,39.6,30.25,South,180,0.0,-999.0,50,0.00,,,0.00,Wunderground v.1.15,2013-05-14 13:00:00,
2013-05-14 09:05:00,58.2,39.6,30.25,South,180,0.0,-999.0,50,0.00,,,0.00,Wunderground v.1.15,2013-05-14 13:05:00,
2013-05-14 09:10:00,58.2,39.6,30.25,South,180,0.0,-999.0,50,0.00,,,0.00,Wunderground v.1.15,2013-05-14 13:10:00,
2013-05-14 09:15:00,60.1,39.8,30.25,South,180,1.0,-999.0,47,0.00,,,0.00,Wunderground v.1.15,2013-05-14 13:15:00,
2013-05-14 09:20:00,60.1,39.8,30.25,South,180,1.0,-999.0,47,0.00,,,0.00,Wunderground v.1.15,2013-05-14 13:20:00,
2013-05-14 09:25:00,60.1,39.8,30.25,South,180,1.0,-999.0,47,0.00,,,0.00,Wunderground v.1.15,2013-05-14 13:25:00,
2013-05-14 09:30:00,60.1,39.8,30.25,South,180,1.0,-999.0,47,0.00,,,0.00,Wunderground v.1.15,2013-05-14 13:30:00,
2013-05-14 09:35:00,60.1,39.8,30.25,South,180,1.0,-999.0,47,0.00,,,0.00,Wunderground v.1.15,2013-05-14 13:35:00,
2013-05-14 09:40:00,60.1,39.8,30.25,South,180,1.0,-999.0,47,0.00,,,0.00,Wunderground v.1.15,2013-05-14 13:40:00,
2013-05-14 09:45:00,60.5,37.9,30.25,South,180,1.0,-999.0,43,0.00,,,0.00,Wunderground v.1.15,2013-05-14 13:45:00,
2013-05-14 09:50:00,60.5,37.9,30.25,South,180,1.0,-999.0,43,0.00,,,0.00,Wunderground v.1.15,2013-05-14 13:50:00,
2013-05-14 09:55:00,60.5,37.9,30.25,South,180,1.0,-999.0,43,0.00,,,0.00,Wunderground v.1.15,2013-05-14 13:55:00,
2013-05-14 10:00:00,60.5,37.9,30.25,South,180,1.0,-999.0,43,0.00,,,0.00,Wunderground v.1.15,2013-05-14 14:00:00,
2013-05-14 10:05:00,60.5,37.9,30.25,South,180,1.0,-999.0,43,0.00,,,0.00,Wunderground v.1.15,2013-05-14 14:05:00,
2013-05-14 10:10:00,60.5,37.9,30.25,South,180,1.0,-999.0,43,0.00,,,0.00,Wunderground v.1.15,2013-05-14 14:10:00,
2013-05-14 10:15:00,59.6,39.9,30.26,West,270,2.0,-999.0,48,0.00,,,0.00,Wunderground v.1.15,2013-05-14 14:15:00,
2013-05-14 10:20:00,59.6,39.9,30.26,West,270,2.0,-999.0,48,0.00,,,0.00,Wunderground v.1.15,2013-05-14 14:20:00,
2013-05-14 10:25:00,59.6,39.9,30.26,West,270,2.0,-999.0,48,0.00,,,0.00,Wunderground v.1.15,2013-05-14 14:25:00,
2013-05-14 10:30:00,59.6,39.9,30.26,West,270,2.0,-999.0,48,0.00,,,0.00,Wunderground v.1.15,2013-05-14 14:30:00,
2013-05-14 10:35:00,59.6,39.9,30.26,West,270,2.0,-999.0,48,0.00,,,0.00,Wunderground v.1.15,2013-05-14 14:35:00,
2013-05-14 10:40:00,59.6,39.9,30.26,West,270,2.0,-999.0,48,0.00,,,0.00,Wunderground v.1.15,2013-05-14 14:40:00,
2013-05-14 10:45:00,61.6,40.0,30.26,West,270,1.0,-999.0,45,0.00,,,0.00,Wunderground v.1.15,2013-05-14 14:45:00,
2013-05-14 10:50:00,61.6,40.0,30.26,West,270,1.0,-999.0,45,0.00,,,0.00,Wunderground v.1.15,2013-05-14 14:50:00,
2013-05-14 10:55:00,61.6,40.0,30.26,West,270,1.0,-999.0,45,0.00,,,0.00,Wunderground v.1.15,2013-05-14 14:55:00,
2013-05-14 11:00:00,61.6,40.0,30.26,West,270,1.0,-999.0,45,0.00,,,0.00,Wunderground v.1.15,2013-05-14 15:00:00,
2013-05-14 11:50:00,64.0,41.0,30.25,SE,144,1.0,1.0,43,0.00,,,0.00,Wunderground v.1.15,2013-05-14 15:50:00,
2013-05-14 11:55:00,64.3,43.1,30.25,West,270,1.0,3.0,46,0.00,,,0.00,Wunderground v.1.15,2013-05-14 15:55:00,
2013-05-14 12:00:00,64.5,42.7,30.25,SSE,161,1.0,1.0,45,0.00,,,0.00,Wunderground v.1.15,2013-05-14 16:00:00,
2013-05-14 12:05:00,64.5,44.4,30.25,West,267,1.0,3.0,48,0.00,,,0.00,Wunderground v.1.15,2013-05-14 16:05:00,
2013-05-14 12:10:00,64.6,44.5,30.24,NNE,12,2.0,5.0,48,0.00,,,0.00,Wunderground v.1.15,2013-05-14 16:10:00,
2013-05-14 12:15:00,64.8,45.7,30.24,WSW,257,2.0,5.0,50,0.00,,,0.00,Wunderground v.1.15,2013-05-14 16:15:00,
2013-05-14 12:20:00,64.9,43.0,30.24,NW,308,1.0,5.0,45,0.00,,,0.00,Wunderground v.1.15,2013-05-14 16:20:00,
2013-05-14 12:25:00,64.9,43.6,30.24,West,261,1.0,5.0,46,0.00,,,0.00,Wunderground v.1.15,2013-05-14 16:25:00,
2013-05-14 12:30:00,65.0,44.3,30.23,West,275,2.0,5.0,47,0.00,,,0.00,Wunderground v.1.15,2013-05-14 16:30:00,
2013-05-14 12:40:00,65.6,45.4,30.22,SSW,200,1.0,1.0,48,0.00,,,0.00,Wunderground v.1.15,2013-05-14 16:40:00,
2013-05-14 12:45:00,65.9,43.9,30.22,NW,304,1.0,5.0,45,0.00,,,0.00,Wunderground v.1.15,2013-05-14 16:45:00,
2013-05-14 12:50:00,66.3,46.6,30.22,West,277,1.0,5.0,49,0.00,,,0.00,Wunderground v.1.15,2013-05-14 16:50:00,
2013-05-14 12:55:00,66.3,43.7,30.22,NNW,327,1.0,5.0,44,0.00,,,0.00,Wunderground v.1.15,2013-05-14 16:55:00,
2013-05-14 13:00:00,66.6,45.2,30.22,West,263,1.0,1.0,46,0.00,,,0.00,Wunderground v.1.15,2013-05-14 17:00:00,
2013-05-14 13:05:00,66.8,43.0,30.22,NW,315,1.0,5.0,42,0.00,,,0.00,Wunderground v.1.15,2013-05-14 17:05:00,
2013-05-14 13:10:00,67.2,43.3,30.22,SW,222,1.0,5.0,42,0.00,,,0.00,Wunderground v.1.15,2013-05-14 17:10:00,
2013-05-14 13:20:00,67.6,45.5,30.21,WSW,244,2.0,2.0,45,0.00,,,0.00,Wunderground v.1.15,2013-05-14 17:20:00,
2013-05-14 13:25:00,67.8,45.1,30.21,WSW,258,1.0,5.0,44,0.00,,,0.00,Wunderground v.1.15,2013-05-14 17:25:00,
2013-05-14 13:30:00,67.9,44.6,30.20,SW,220,1.0,1.0,43,0.00,,,0.00,Wunderground v.1.15,2013-05-14 17:30:00,
2013-05-14 13:35:00,68.3,45.5,30.20,WNW,298,2.0,2.0,44,0.00,,,0.00,Wunderground v.1.15,2013-05-14 17:35:00,
2013-05-14 13:40:00,68.4,46.8,30.20,WSW,239,2.0,2.0,46,0.00,,,0.00,Wunderground v.1.15,2013-05-14 17:40:00,
2013-05-14 13:45:00,68.3,44.9,30.20,West,271,2.0,5.0,43,0.00,,,0.00,Wunderground v.1.15,2013-05-14 17:45:00,
2013-05-14 13:50:00,68.6,44.6,30.19,WSW,257,2.0,2.0,42,0.00,,,0.00,Wunderground v.1.15,2013-05-14 17:50:00,
2013-05-14 13:55:00,68.9,45.5,30.20,West,262,2.0,5.0,43,0.00,,,0.00,Wunderground v.1.15,2013-05-14 17:55:00,
2013-05-14 14:00:00,69.3,44.6,30.19,West,279,1.0,1.0,41,0.00,,,0.00,Wunderground v.1.15,2013-05-14 18:00:00,
2013-05-14 14:10:00,69.4,42.0,30.19,NW,313,1.0,5.0,37,0.00,,,0.00,Wunderground v.1.15,2013-05-14 18:10:00,
2013-05-14 14:15:00,70.1,45.9,30.19,WNW,286,1.0,5.0,42,0.00,,,0.00,Wunderground v.1.15,2013-05-14 18:15:00,
2013-05-14 14:20:00,69.5,44.1,30.19,WSW,245,2.0,5.0,40,0.00,,,0.00,Wunderground v.1.15,2013-05-14 18:20:00,
2013-05-14 14:30:00,70.1,45.3,30.18,West,268,2.0,5.0,41,0.00,,,0.00,Wunderground v.1.15,2013-05-14 18:30:00,
2013-05-14 14:35:00,70.1,45.3,30.18,SW,233,1.0,5.0,41,0.00,,,0.00,Wunderground v.1.15,2013-05-14 18:35:00,
2013-05-14 14:40:00,70.4,45.6,30.18,NE,53,1.0,1.0,41,0.00,,,0.00,Wunderground v.1.15,2013-05-14 18:40:00,
2013-05-14 14:45:00,70.6,43.1,30.17,SE,146,1.0,5.0,37,0.00,,,0.00,Wunderground v.1.15,2013-05-14 18:45:00,
2013-05-14 14:50:00,71.2,47.6,30.17,West,268,1.0,5.0,43,0.00,,,0.00,Wunderground v.1.15,2013-05-14 18:50:00,
2013-05-14 14:55:00,71.4,46.5,30.17,West,265,1.0,5.0,41,0.00,,,0.00,Wunderground v.1.15,2013-05-14 18:55:00,
2013-05-14 15:00:00,71.6,45.3,30.17,NNE,31,1.0,1.0,39,0.00,,,0.00,Wunderground v.1.15,2013-05-14 19:00:00,
2013-05-14 15:05:00,71.7,46.7,30.16,WNW,288,1.0,5.0,41,0.00,,,0.00,Wunderground v.1.15,2013-05-14 19:05:00,
2013-05-14 15:10:00,71.7,45.4,30.16,West,276,1.0,1.0,39,0.00,,,0.00,Wunderground v.1.15,2013-05-14 19:10:00,
2013-05-14 15:15:00,71.7,45.4,30.15,West,281,1.0,4.0,39,0.00,,,0.00,Wunderground v.1.15,2013-05-14 19:15:00,
2013-05-14 15:20:00,71.8,48.7,30.15,WNW,292,2.0,2.0,44,0.00,,,0.00,Wunderground v.1.15,2013-05-14 19:20:00,
2013-05-14 15:25:00,72.1,47.7,30.14,WNW,296,2.0,5.0,42,0.00,,,0.00,Wunderground v.1.15,2013-05-14 19:25:00,
2013-05-14 15:30:00,72.5,46.1,30.14,West,259,1.0,5.0,39,0.00,,,0.00,Wunderground v.1.15,2013-05-14 19:30:00,
2013-05-14 15:35:00,72.5,44.7,30.14,WSW,247,1.0,5.0,37,0.00,,,0.00,Wunderground v.1.15,2013-05-14 19:35:00,
2013-05-14 15:40:00,72.5,46.1,30.13,West,273,1.0,5.0,39,0.00,,,0.00,Wunderground v.1.15,2013-05-14 19:40:00,
2013-05-14 15:45:00,73.1,48.6,30.13,West,264,2.0,5.0,42,0.00,,,0.00,Wunderground v.1.15,2013-05-14 19:45:00,
2013-05-14 15:50:00,72.9,45.8,30.13,West,264,3.0,7.0,38,0.00,,,0.00,Wunderground v.1.15,2013-05-14 19:50:00,
2013-05-14 15:55:00,72.2,45.2,30.12,South,179,4.0,7.0,38,0.00,,,0.00,Wunderground v.1.15,2013-05-14 19:55:00,
2013-05-14 16:05:00,73.1,46.0,30.12,West,264,2.0,5.0,38,0.00,,,0.00,Wunderground v.1.15,2013-05-14 20:05:00,
2013-05-14 16:10:00,73.4,44.8,30.12,West,265,2.0,5.0,36,0.00,,,0.00,Wunderground v.1.15,2013-05-14 20:10:00,
2013-05-14 16:15:00,72.8,45.7,30.11,WNW,287,2.0,5.0,38,0.00,,,0.00,Wunderground v.1.15,2013-05-14 20:15:00,
2013-05-14 16:20:00,73.0,47.9,30.11,West,261,3.0,5.0,41,0.00,,,0.00,Wunderground v.1.15,2013-05-14 20:20:00,
2013-05-14 16:25:00,73.5,47.0,30.11,SSW,198,3.0,5.0,39,0.00,,,0.00,Wunderground v.1.15,2013-05-14 20:25:00,
2013-05-14 16:30:00,74.0,46.8,30.11,West,260,2.0,5.0,38,0.00,,,0.00,Wunderground v.1.15,2013-05-14 20:30:00,
2013-05-14 16:35:00,73.6,45.0,30.11,WSW,257,2.0,6.0,36,0.00,,,0.00,Wunderground v.1.15,2013-05-14 20:35:00,
2013-05-14 16:40:00,73.0,45.9,30.11,SE,144,4.0,6.0,38,0.00,,,0.00,Wunderground v.1.15,2013-05-14 20:40:00,
2013-05-14 16:45:00,73.1,45.3,30.10,South,175,4.0,6.0,37,0.00,,,0.00,Wunderground v.1.15,2013-05-14 20:45:00,
2013-05-14 16:50:00,73.5,47.0,30.10,West,267,2.0,5.0,39,0.00,,,0.00,Wunderground v.1.15,2013-05-14 20:50:00,
2013-05-14 16:55:00,73.9,47.4,30.10,WSW,256,2.0,5.0,39,0.00,,,0.00,Wunderground v.1.15,2013-05-14 20:55:00,
2013-05-14 17:00:00,74.0,48.8,30.10,West,269,2.0,5.0,41,0.00,,,0.00,Wunderground v.1.15,2013-05-14 21:00:00,
2013-05-14 17:05:00,74.3,47.0,30.10,WNW,288,2.0,5.0,38,0.00,,,0.00,Wunderground v.1.15,2013-05-14 21:05:00,
2013-05-14 17:15:00,74.1,48.9,30.10,West,275,2.0,3.0,41,0.00,,,0.00,Wunderground v.1.15,2013-05-14 21:15:00,
2013-05-14 17:20:00,74.2,49.6,30.10,West,278,2.0,3.0,42,0.00,,,0.00,Wunderground v.1.15,2013-05-14 21:20:00,
2013-05-14 17:30:00,73.7,47.2,30.10,SE,125,4.0,5.0,39,0.00,,,0.00,Wunderground v.1.15,2013-05-14 21:30:00,
2013-05-14 17:35:00,74.1,48.2,30.10,WSW,240,3.0,5.0,40,0.00,,,0.00,Wunderground v.1.15,2013-05-14 21:35:00,
2013-05-14 17:40:00,73.3,46.8,30.10,WSW,250,3.0,6.0,39,0.00,,,0.00,Wunderground v.1.15,2013-05-14 21:40:00,
2013-05-14 17:45:00,73.3,46.2,30.10,SSW,213,5.0,6.0,38,0.00,,,0.00,Wunderground v.1.15,2013-05-14 21:45:00,
2013-05-14 17:50:00,73.7,47.9,30.10,WSW,254,3.0,6.0,40,0.00,,,0.00,Wunderground v.1.15,2013-05-14 21:50:00,
2013-05-14 17:55:00,73.9,48.1,30.10,West,280,2.0,6.0,40,0.00,,,0.00,Wunderground v.1.15,2013-05-14 21:55:00,
2013-05-14 18:00:00,73.8,47.3,30.10,WNW,294,3.0,3.0,39,0.00,,,0.00,Wunderground v.1.15,2013-05-14 22:00:00,
2013-05-14 18:05:00,73.9,48.7,30.10,SW,235,2.0,11.0,41,0.00,,,0.00,Wunderground v.1.15,2013-05-14 22:05:00,
2013-05-14 18:10:00,74.3,49.7,30.10,SE,136,2.0,2.0,42,0.00,,,0.00,Wunderground v.1.15,2013-05-14 22:10:00,
2013-05-14 18:15:00,74.8,49.5,30.10,SW,217,1.0,11.0,41,0.00,,,0.00,Wunderground v.1.15,2013-05-14 22:15:00,
2013-05-14 18:20:00,74.6,48.7,30.10,West,279,2.0,2.0,40,0.00,,,0.00,Wunderground v.1.15,2013-05-14 22:20:00,
2013-05-14 18:25:00,74.5,47.9,30.10,WSW,249,2.0,11.0,39,0.00,,,0.00,Wunderground v.1.15,2013-05-14 22:25:00,
2013-05-14 18:30:00,73.9,48.7,30.10,West,266,2.0,11.0,41,0.00,,,0.00,Wunderground v.1.15,2013-05-14 22:30:00,
2013-05-14 18:35:00,74.0,48.1,30.10,South,186,3.0,11.0,40,0.00,,,0.00,Wunderground v.1.15,2013-05-14 22:35:00,
2013-05-14 18:40:00,73.6,48.4,30.10,SE,125,3.0,3.0,41,0.00,,,0.00,Wunderground v.1.15,2013-05-14 22:40:00,
2013-05-14 18:45:00,73.3,46.8,30.10,SW,225,3.0,11.0,39,0.00,,,0.00,Wunderground v.1.15,2013-05-14 22:45:00,
2013-05-14 18:50:00,73.4,46.9,30.10,WSW,257,2.0,2.0,39,0.00,,,0.00,Wunderground v.1.15,2013-05-14 22:50:00,
2013-05-14 18:55:00,73.4,46.9,30.10,SW,229,2.0,11.0,39,0.00,,,0.00,Wunderground v.1.15,2013-05-14 22:55:00,
2013-05-14 19:00:00,73.5,47.0,30.10,SSW,205,2.0,2.0,39,0.00,,,0.00,Wunderground v.1.15,2013-05-14 23:00:00,
2013-05-14 19:05:00,73.7,47.9,30.10,West,267,1.0,3.0,40,0.00,,,0.00,Wunderground v.1.15,2013-05-14 23:05:00,
2013-05-14 19:10:00,73.6,48.4,30.09,South,171,1.0,1.0,41,0.00,,,0.00,Wunderground v.1.15,2013-05-14 23:10:00,
2013-05-14 19:15:00,73.2,48.1,30.09,West,277,2.0,3.0,41,0.00,,,0.00,Wunderground v.1.15,2013-05-14 23:15:00,
2013-05-14 19:20:00,72.7,48.3,30.09,WSW,243,2.0,2.0,42,0.00,,,0.00,Wunderground v.1.15,2013-05-14 23:20:00,
2013-05-14 19:25:00,72.5,48.1,30.09,WSW,257,2.0,4.0,42,0.00,,,0.00,Wunderground v.1.15,2013-05-14 23:25:00,
2013-05-14 19:30:00,71.6,47.3,30.09,WSW,252,2.0,11.0,42,0.00,,,0.00,Wunderground v.1.15,2013-05-14 23:30:00,
2013-05-14 19:35:00,70.8,47.8,30.09,WSW,251,2.0,11.0,44,0.00,,,0.00,Wunderground v.1.15,2013-05-14 23:35:00,
2013-05-14 19:40:00,70.4,46.8,30.08,West,270,2.0,2.0,43,0.00,,,0.00,Wunderground v.1.15,2013-05-14 23:40:00,
2013-05-14 19:50:00,69.8,46.9,30.08,West,273,2.0,11.0,44,0.00,,,0.00,Wunderground v.1.15,2013-05-14 23:50:00,
2013-05-14 19:55:00,69.6,47.3,30.08,WNW,284,2.0,11.0,45,0.00,,,0.00,Wunderground v.1.15,2013-05-14 23:55:00,
2013-05-14 20:00:00,69.3,47.6,30.08,WNW,291,1.0,11.0,46,0.00,,,0.00,Wunderground v.1.15,2013-05-15 00:00:00,
2013-05-14 20:05:00,69.2,47.5,30.08,WNW,302,1.0,11.0,46,0.00,,,0.00,Wunderground v.1.15,2013-05-15 00:05:00,
2013-05-14 20:10:00,69.0,47.4,30.08,WNW,282,1.0,1.0,46,0.00,,,0.00,Wunderground v.1.15,2013-05-15 00:10:00,
2013-05-14 20:15:00,68.8,48.3,30.07,WNW,288,1.0,2.0,48,0.00,,,0.00,Wunderground v.1.15,2013-05-15 00:15:00,
2013-05-14 20:20:00,68.5,48.6,30.07,West,275,1.0,11.0,49,0.00,,,0.00,Wunderground v.1.15,2013-05-15 00:20:00,
2013-05-14 20:25:00,68.2,48.8,30.07,West,281,2.0,11.0,50,0.00,,,0.00,Wunderground v.1.15,2013-05-15 00:25:00,
2013-05-14 20:30:00,67.9,49.6,30.07,WNW,283,2.0,2.0,52,0.00,,,0.00,Wunderground v.1.15,2013-05-15 00:30:00,
2013-05-14 20:35:00,67.7,48.9,30.07,West,267,1.0,4.0,51,0.00,,,0.00,Wunderground v.1.15,2013-05-15 00:35:00,
2013-05-14 20:40:00,67.5,48.2,30.07,West,265,1.0,11.0,50,0.00,,,0.00,Wunderground v.1.15,2013-05-15 00:40:00,
2013-05-14 20:45:00,67.4,48.1,30.07,West,271,2.0,11.0,50,0.00,,,0.00,Wunderground v.1.15,2013-05-15 00:45:00,
2013-05-14 20:50:00,67.3,47.5,30.07,West,266,2.0,11.0,49,0.00,,,0.00,Wunderground v.1.15,2013-05-15 00:50:00,
2013-05-14 20:55:00,67.3,48.0,30.06,West,259,2.0,11.0,50,0.00,,,0.00,Wunderground v.1.15,2013-05-15 00:55:00,
2013-05-14 21:00:00,67.2,47.4,30.06,West,273,2.0,11.0,49,0.00,,,0.00,Wunderground v.1.15,2013-05-15 01:00:00,
2013-05-14 21:05:00,67.2,47.4,30.06,North,355,2.0,11.0,49,0.00,,,0.00,Wunderground v.1.15,2013-05-15 01:05:00,
2013-05-14 21:10:00,67.1,47.8,30.06,West,273,2.0,2.0,50,0.00,,,0.00,Wunderground v.1.15,2013-05-15 01:10:00,
2013-05-14 21:15:00,67.0,47.7,30.06,West,261,2.0,11.0,50,0.00,,,0.00,Wunderground v.1.15,2013-05-15 01:15:00,
2013-05-14 21:20:00,66.9,47.6,30.07,WNW,287,2.0,11.0,50,0.00,,,0.00,Wunderground v.1.15,2013-05-15 01:20:00,
2013-05-14 21:25:00,66.9,47.1,30.07,WSW,251,2.0,11.0,49,0.00,,,0.00,Wunderground v.1.15,2013-05-15 01:25:00,
2013-05-14 21:30:00,66.9,47.6,30.07,WSW,245,2.0,11.0,50,0.00,,,0.00,Wunderground v.1.15,2013-05-15 01:30:00,
2013-05-14 21:35:00,66.8,47.6,30.07,SSW,213,3.0,11.0,50,0.00,,,0.00,Wunderground v.1.15,2013-05-15 01:35:00,
2013-05-14 21:40:00,66.7,47.5,30.08,WSW,250,2.0,11.0,50,0.00,,,0.00,Wunderground v.1.15,2013-05-15 01:40:00,
2013-05-14 21:45:00,66.6,47.9,30.08,WNW,285,2.0,11.0,51,0.00,,,0.00,Wunderground v.1.15,2013-05-15 01:45:00,
2013-05-14 21:50:00,66.5,47.8,30.08,NNW,328,2.0,2.0,51,0.00,,,0.00,Wunderground v.1.15,2013-05-15 01:50:00,
2013-05-14 21:55:00,66.5,48.3,30.08,WNW,288,2.0,11.0,52,0.00,,,0.00,Wunderground v.1.15,2013-05-15 01:55:00,
2013-05-14 22:00:00,66.4,48.2,30.08,WSW,258,2.0,2.0,52,0.00,,,0.00,Wunderground v.1.15,2013-05-15 02:00:00,
2013-05-14 22:05:00,66.3,48.1,30.08,WNW,288,2.0,11.0,52,0.00,,,0.00,Wunderground v.1.15,2013-05-15 02:05:00,
2013-05-14 22:10:00,66.2,49.1,30.08,West,267,1.0,11.0,54,0.00,,,0.00,Wunderground v.1.15,2013-05-15 02:10:00,
2013-05-14 22:15:00,66.0,49.4,30.08,WNW,296,1.0,11.0,55,0.00,,,0.00,Wunderground v.1.15,2013-05-15 02:15:00,
2013-05-14 22:20:00,65.8,49.7,30.08,SW,230,1.0,1.0,56,0.00,,,0.00,Wunderground v.1.15,2013-05-15 02:20:00,
2013-05-14 22:25:00,65.7,49.6,30.08,WSW,248,1.0,4.0,56,0.00,,,0.00,Wunderground v.1.15,2013-05-15 02:25:00,
2013-05-14 22:30:00,65.6,49.0,30.08,West,260,2.0,2.0,55,0.00,,,0.00,Wunderground v.1.15,2013-05-15 02:30:00,
2013-05-14 22:35:00,65.6,49.0,30.08,West,270,1.0,-999.0,55,0.00,,,0.00,Wunderground v.1.15,2013-05-15 02:35:00,
2013-05-14 22:40:00,65.6,49.0,30.08,West,270,1.0,-999.0,55,0.00,,,0.00,Wunderground v.1.15,2013-05-15 02:40:00,
2013-05-14 22:45:00,64.9,49.3,30.07,West,270,2.0,-999.0,57,0.00,,,0.00,Wunderground v.1.15,2013-05-15 02:45:00,
2013-05-14 22:50:00,64.9,49.3,30.07,West,270,2.0,-999.0,57,0.00,,,0.00,Wunderground v.1.15,2013-05-15 02:50:00,
2013-05-14 22:55:00,64.9,49.3,30.07,West,270,2.0,-999.0,57,0.00,,,0.00,Wunderground v.1.15,2013-05-15 02:55:00,
2013-05-14 23:00:00,64.9,49.3,30.07,West,270,2.0,-999.0,57,0.00,,,0.00,Wunderground v.1.15,2013-05-15 03:00:00,
2013-05-14 23:05:00,64.9,49.3,30.07,West,270,2.0,-999.0,57,0.00,,,0.00,Wunderground v.1.15,2013-05-15 03:05:00,
2013-05-14 23:10:00,64.9,49.3,30.07,West,270,2.0,-999.0,57,0.00,,,0.00,Wunderground v.1.15,2013-05-15 03:10:00,
2013-05-14 23:15:00,64.4,48.8,30.07,West,270,2.0,-999.0,57,0.00,,,0.00,Wunderground v.1.15,2013-05-15 03:15:00,
2013-05-14 23:30:00,64.4,48.8,30.07,West,270,2.0,-999.0,57,0.00,,,0.00,Wunderground v.1.15,2013-05-15 03:30:00,
2013-05-14 23:35:00,64.4,48.8,30.07,West,270,2.0,-999.0,57,0.00,,,0.00,Wunderground v.1.15,2013-05-15 03:35:00,
2013-05-14 23:40:00,64.4,48.8,30.07,West,270,2.0,-999.0,57,0.00,,,0.00,Wunderground v.1.15,2013-05-15 03:40:00,
2013-05-14 23:45:00,64.0,48.9,30.06,West,270,2.0,-999.0,58,0.00,,,0.00,Wunderground v.1.15,2013-05-15 03:45:00,
2013-05-14 23:50:00,64.0,48.9,30.06,West,270,2.0,-999.0,58,0.00,,,0.00,Wunderground v.1.15,2013-05-15 03:50:00,
2013-05-14 23:55:00,64.0,48.9,30.06,West,270,2.0,-999.0,58,0.00,,,0.00,Wunderground v.1.15,2013-05-15 03:55:00,